Terminal Aerodrome Forecast
Issued by NWS Topeka, KS

Home | Current Version | Previous Version | Graphics & Text | Print | Product List | Glossary On
Versions: 1 2 3 4 5 6 7 8 9 10 11 12 13 14 15 16
000
FTUS43 KTOP 191100
TAFTOP
TAF
KTOP 191120Z 1912/2012 13005KT 5SM BR BKN005
      TEMPO 1912/1916 1SM BR OVC004
     FM191700 16008KT P6SM SCT020
     FM191900 18010KT P6SM FEW025=

USA.gov is the U.S. government's official web portal to all federal, state and local government web resources and services.